sensor_id;sensor_type;location;lat;lon;timestamp;temperature;humidity
1155;DHT22;566;48.414;9.118;2022-11-10T00:00:34;9.20;82.10
1155;DHT22;566;48.414;9.118;2022-11-10T00:03:06;9.20;81.40
1155;DHT22;566;48.414;9.118;2022-11-10T00:05:32;9.20;81.30
1155;DHT22;566;48.414;9.118;2022-11-10T00:08:02;9.20;79.90
1155;DHT22;566;48.414;9.118;2022-11-10T00:10:29;9.20;80.10
1155;DHT22;566;48.414;9.118;2022-11-10T00:12:59;9.30;79.60
1155;DHT22;566;48.414;9.118;2022-11-10T00:15:25;9.30;80.30
1155;DHT22;566;48.414;9.118;2022-11-10T00:18:09;9.20;80.40
1155;DHT22;566;48.414;9.118;2022-11-10T00:20:35;9.20;80.10
1155;DHT22;566;48.414;9.118;2022-11-10T00:23:00;9.10;80.50
1155;DHT22;566;48.414;9.118;2022-11-10T00:25:26;9.00;80.00
1155;DHT22;566;48.414;9.118;2022-11-10T00:27:52;8.90;79.80
1155;DHT22;566;48.414;9.118;2022-11-10T00:30:18;8.90;79.40
1155;DHT22;566;48.414;9.118;2022-11-10T00:32:45;8.80;79.40
1155;DHT22;566;48.414;9.118;2022-11-10T00:35:12;8.90;77.80
1155;DHT22;566;48.414;9.118;2022-11-10T00:37:38;8.90;78.50
1155;DHT22;566;48.414;9.118;2022-11-10T00:40:04;8.80;78.50
1155;DHT22;566;48.414;9.118;2022-11-10T00:42:30;8.90;77.90
1155;DHT22;566;48.414;9.118;2022-11-10T00:44:55;8.80;78.20
1155;DHT22;566;48.414;9.118;2022-11-10T00:47:21;8.80;77.90
1155;DHT22;566;48.414;9.118;2022-11-10T00:49:46;8.80;77.80
1155;DHT22;566;48.414;9.118;2022-11-10T00:52:12;8.80;77.80
1155;DHT22;566;48.414;9.118;2022-11-10T00:54:38;8.80;78.40
1155;DHT22;566;48.414;9.118;2022-11-10T00:57:03;8.80;77.40
1155;DHT22;566;48.414;9.118;2022-11-10T00:59:29;8.80;77.10
1155;DHT22;566;48.414;9.118;2022-11-10T01:01:55;8.80;77.20
1155;DHT22;566;48.414;9.118;2022-11-10T01:04:20;8.80;77.80
1155;DHT22;566;48.414;9.118;2022-11-10T01:06:46;8.80;76.70
1155;DHT22;566;48.414;9.118;2022-11-10T01:09:12;8.70;76.20
1155;DHT22;566;48.414;9.118;2022-11-10T01:11:38;8.70;74.90
1155;DHT22;566;48.414;9.118;2022-11-10T01:14:04;8.80;74.20
1155;DHT22;566;48.414;9.118;2022-11-10T01:16:33;8.80;74.20
1155;DHT22;566;48.414;9.118;2022-11-10T01:19:00;8.80;74.50
1155;DHT22;566;48.414;9.118;2022-11-10T01:21:28;8.80;74.00
1155;DHT22;566;48.414;9.118;2022-11-10T01:23:54;8.80;73.40
1155;DHT22;566;48.414;9.118;2022-11-10T01:26:20;8.70;73.30
1155;DHT22;566;48.414;9.118;2022-11-10T01:28:45;8.70;72.10
1155;DHT22;566;48.414;9.118;2022-11-10T01:31:16;8.80;72.40
1155;DHT22;566;48.414;9.118;2022-11-10T01:33:42;8.70;72.60
1155;DHT22;566;48.414;9.118;2022-11-10T01:36:09;8.70;71.90
1155;DHT22;566;48.414;9.118;2022-11-10T01:38:36;8.70;72.40
1155;DHT22;566;48.414;9.118;2022-11-10T01:41:05;8.60;73.10
1155;DHT22;566;48.414;9.118;2022-11-10T01:43:31;8.60;71.30
1155;DHT22;566;48.414;9.118;2022-11-10T01:46:01;8.60;71.80
1155;DHT22;566;48.414;9.118;2022-11-10T01:48:48;8.70;70.70
1155;DHT22;566;48.414;9.118;2022-11-10T01:51:22;8.80;71.30
1155;DHT22;566;48.414;9.118;2022-11-10T01:53:53;8.80;71.50
1155;DHT22;566;48.414;9.118;2022-11-10T01:56:22;8.80;71.40
1155;DHT22;566;48.414;9.118;2022-11-10T01:58:54;8.80;72.20
1155;DHT22;566;48.414;9.118;2022-11-10T02:01:22;8.80;70.90
1155;DHT22;566;48.414;9.118;2022-11-10T02:03:54;8.90;71.30
1155;DHT22;566;48.414;9.118;2022-11-10T02:06:26;8.90;72.20
1155;DHT22;566;48.414;9.118;2022-11-10T02:08:53;8.90;72.50
1155;DHT22;566;48.414;9.118;2022-11-10T02:11:20;8.90;73.10
1155;DHT22;566;48.414;9.118;2022-11-10T02:13:50;8.80;73.20
1155;DHT22;566;48.414;9.118;2022-11-10T02:16:16;8.90;72.90
1155;DHT22;566;48.414;9.118;2022-11-10T02:18:43;8.90;73.30
1155;DHT22;566;48.414;9.118;2022-11-10T02:21:11;8.90;73.00
1155;DHT22;566;48.414;9.118;2022-11-10T02:23:43;9.00;72.90
1155;DHT22;566;48.414;9.118;2022-11-10T02:26:13;9.00;73.70
1155;DHT22;566;48.414;9.118;2022-11-10T02:28:40;9.00;73.70
1155;DHT22;566;48.414;9.118;2022-11-10T02:31:06;9.00;73.90
1155;DHT22;566;48.414;9.118;2022-11-10T02:33:34;9.10;73.50
1155;DHT22;566;48.414;9.118;2022-11-10T02:36:00;9.00;74.90
1155;DHT22;566;48.414;9.118;2022-11-10T02:38:26;9.00;75.10
1155;DHT22;566;48.414;9.118;2022-11-10T02:40:51;9.00;75.60
1155;DHT22;566;48.414;9.118;2022-11-10T02:43:17;8.80;76.80
1155;DHT22;566;48.414;9.118;2022-11-10T02:45:44;8.70;75.80
1155;DHT22;566;48.414;9.118;2022-11-10T02:48:11;8.80;73.90
1155;DHT22;566;48.414;9.118;2022-11-10T02:50:37;8.90;74.50
1155;DHT22;566;48.414;9.118;2022-11-10T02:53:03;9.00;75.00
1155;DHT22;566;48.414;9.118;2022-11-10T02:55:29;8.90;77.00
1155;DHT22;566;48.414;9.118;2022-11-10T02:57:55;8.70;78.30
1155;DHT22;566;48.414;9.118;2022-11-10T03:00:21;8.50;78.60
1155;DHT22;566;48.414;9.118;2022-11-10T03:02:47;8.20;78.50
1155;DHT22;566;48.414;9.118;2022-11-10T03:05:12;8.10;75.50
1155;DHT22;566;48.414;9.118;2022-11-10T03:07:38;8.10;75.80
1155;DHT22;566;48.414;9.118;2022-11-10T03:10:06;8.10;74.20
1155;DHT22;566;48.414;9.118;2022-11-10T03:12:32;8.20;74.10
1155;DHT22;566;48.414;9.118;2022-11-10T03:14:58;8.10;75.80
1155;DHT22;566;48.414;9.118;2022-11-10T03:17:23;8.00;75.30
1155;DHT22;566;48.414;9.118;2022-11-10T03:19:49;7.80;75.70
1155;DHT22;566;48.414;9.118;2022-11-10T03:22:15;7.70;75.00
1155;DHT22;566;48.414;9.118;2022-11-10T03:24:41;7.90;72.50
1155;DHT22;566;48.414;9.118;2022-11-10T03:27:09;8.00;72.20
1155;DHT22;566;48.414;9.118;2022-11-10T03:29:35;8.20;72.10
1155;DHT22;566;48.414;9.118;2022-11-10T03:32:01;8.30;71.90
1155;DHT22;566;48.414;9.118;2022-11-10T03:34:26;8.40;72.30
1155;DHT22;566;48.414;9.118;2022-11-10T03:36:55;8.50;72.40
1155;DHT22;566;48.414;9.118;2022-11-10T03:39:21;8.50;73.10
1155;DHT22;566;48.414;9.118;2022-11-10T03:41:48;8.30;75.70
1155;DHT22;566;48.414;9.118;2022-11-10T03:44:13;8.10;73.20
1155;DHT22;566;48.414;9.118;2022-11-10T03:46:39;8.20;72.60
1155;DHT22;566;48.414;9.118;2022-11-10T03:49:07;8.10;72.40
1155;DHT22;566;48.414;9.118;2022-11-10T03:51:33;8.20;73.00
1155;DHT22;566;48.414;9.118;2022-11-10T03:54:01;8.10;73.50
1155;DHT22;566;48.414;9.118;2022-11-10T03:56:27;8.10;73.10
1155;DHT22;566;48.414;9.118;2022-11-10T03:58:53;8.00;73.40
1155;DHT22;566;48.414;9.118;2022-11-10T04:01:18;7.90;72.60
1155;DHT22;566;48.414;9.118;2022-11-10T04:03:47;7.80;72.80
1155;DHT22;566;48.414;9.118;2022-11-10T04:06:12;7.80;71.70
1155;DHT22;566;48.414;9.118;2022-11-10T04:08:56;7.70;72.60
1155;DHT22;566;48.414;9.118;2022-11-10T04:11:26;7.60;71.90
1155;DHT22;566;48.414;9.118;2022-11-10T04:14:12;7.60;72.20
1155;DHT22;566;48.414;9.118;2022-11-10T04:16:56;7.50;72.20
1155;DHT22;566;48.414;9.118;2022-11-10T04:19:22;7.40;71.60
1155;DHT22;566;48.414;9.118;2022-11-10T04:21:48;7.50;70.40
1155;DHT22;566;48.414;9.118;2022-11-10T04:24:18;7.50;71.10
1155;DHT22;566;48.414;9.118;2022-11-10T04:26:44;7.40;71.80
1155;DHT22;566;48.414;9.118;2022-11-10T04:29:12;7.40;71.10
1155;DHT22;566;48.414;9.118;2022-11-10T04:31:39;7.40;70.70
1155;DHT22;566;48.414;9.118;2022-11-10T04:34:13;7.50;70.20
1155;DHT22;566;48.414;9.118;2022-11-10T04:36:41;7.50;70.70
1155;DHT22;566;48.414;9.118;2022-11-10T04:39:07;7.50;70.50
1155;DHT22;566;48.414;9.118;2022-11-10T04:41:35;7.50;70.10
1155;DHT22;566;48.414;9.118;2022-11-10T04:44:01;7.50;70.10
1155;DHT22;566;48.414;9.118;2022-11-10T04:46:32;7.40;70.50
1155;DHT22;566;48.414;9.118;2022-11-10T04:48:58;7.40;70.20
1155;DHT22;566;48.414;9.118;2022-11-10T04:51:30;7.30;70.20
1155;DHT22;566;48.414;9.118;2022-11-10T04:53:56;7.30;69.80
1155;DHT22;566;48.414;9.118;2022-11-10T04:56:23;7.20;70.10
1155;DHT22;566;48.414;9.118;2022-11-10T04:58:49;7.10;70.50
1155;DHT22;566;48.414;9.118;2022-11-10T05:01:21;7.10;69.60
1155;DHT22;566;48.414;9.118;2022-11-10T05:03:48;7.10;69.50
1155;DHT22;566;48.414;9.118;2022-11-10T05:06:14;7.10;70.00
1155;DHT22;566;48.414;9.118;2022-11-10T05:08:40;6.90;71.10
1155;DHT22;566;48.414;9.118;2022-11-10T05:11:07;6.70;70.80
1155;DHT22;566;48.414;9.118;2022-11-10T05:13:32;6.70;70.30
1155;DHT22;566;48.414;9.118;2022-11-10T05:16:01;6.60;70.20
1155;DHT22;566;48.414;9.118;2022-11-10T05:18:27;6.60;70.20
1155;DHT22;566;48.414;9.118;2022-11-10T05:20:53;6.50;70.40
1155;DHT22;566;48.414;9.118;2022-11-10T05:23:20;6.30;70.50
1155;DHT22;566;48.414;9.118;2022-11-10T05:26:12;6.30;70.20
1155;DHT22;566;48.414;9.118;2022-11-10T05:28:42;6.20;70.10
1155;DHT22;566;48.414;9.118;2022-11-10T05:31:08;6.10;69.90
1155;DHT22;566;48.414;9.118;2022-11-10T05:33:36;6.20;69.70
1155;DHT22;566;48.414;9.118;2022-11-10T05:36:03;6.20;69.70
1155;DHT22;566;48.414;9.118;2022-11-10T05:38:30;6.20;69.60
1155;DHT22;566;48.414;9.118;2022-11-10T05:40:55;6.20;69.50
1155;DHT22;566;48.414;9.118;2022-11-10T05:43:22;6.20;69.50
1155;DHT22;566;48.414;9.118;2022-11-10T05:45:48;6.20;69.60
1155;DHT22;566;48.414;9.118;2022-11-10T05:48:16;6.10;69.60
1155;DHT22;566;48.414;9.118;2022-11-10T05:50:42;6.10;69.50
1155;DHT22;566;48.414;9.118;2022-11-10T05:53:08;6.10;69.50
1155;DHT22;566;48.414;9.118;2022-11-10T05:55:34;5.90;69.90
1155;DHT22;566;48.414;9.118;2022-11-10T05:58:00;6.00;69.20
1155;DHT22;566;48.414;9.118;2022-11-10T06:00:27;6.00;69.40
1155;DHT22;566;48.414;9.118;2022-11-10T06:03:04;5.90;69.70
1155;DHT22;566;48.414;9.118;2022-11-10T06:05:33;5.80;69.50
1155;DHT22;566;48.414;9.118;2022-11-10T06:07:59;5.70;69.80
1155;DHT22;566;48.414;9.118;2022-11-10T06:10:25;5.60;69.70
1155;DHT22;566;48.414;9.118;2022-11-10T06:12:51;5.70;69.20
1155;DHT22;566;48.414;9.118;2022-11-10T06:15:17;5.80;69.30
1155;DHT22;566;48.414;9.118;2022-11-10T06:17:45;5.90;69.20
1155;DHT22;566;48.414;9.118;2022-11-10T06:20:13;6.00;69.40
1155;DHT22;566;48.414;9.118;2022-11-10T06:22:39;6.00;69.60
1155;DHT22;566;48.414;9.118;2022-11-10T06:25:06;5.90;69.80
1155;DHT22;566;48.414;9.118;2022-11-10T06:27:31;5.70;69.70
1155;DHT22;566;48.414;9.118;2022-11-10T06:30:00;5.70;69.40
1155;DHT22;566;48.414;9.118;2022-11-10T06:32:26;5.70;69.40
1155;DHT22;566;48.414;9.118;2022-11-10T06:34:51;5.70;69.50
1155;DHT22;566;48.414;9.118;2022-11-10T06:37:17;5.70;69.40
1155;DHT22;566;48.414;9.118;2022-11-10T06:39:42;5.70;69.40
1155;DHT22;566;48.414;9.118;2022-11-10T06:42:08;5.80;69.30
1155;DHT22;566;48.414;9.118;2022-11-10T06:44:34;6.00;69.40
1155;DHT22;566;48.414;9.118;2022-11-10T06:46:59;6.20;69.60
1155;DHT22;566;48.414;9.118;2022-11-10T06:49:25;6.30;69.50
1155;DHT22;566;48.414;9.118;2022-11-10T06:51:51;6.50;69.40
1155;DHT22;566;48.414;9.118;2022-11-10T06:54:16;6.60;69.40
1155;DHT22;566;48.414;9.118;2022-11-10T06:56:42;6.60;69.40
1155;DHT22;566;48.414;9.118;2022-11-10T06:59:08;6.70;69.30
1155;DHT22;566;48.414;9.118;2022-11-10T07:01:34;6.60;69.30
1155;DHT22;566;48.414;9.118;2022-11-10T07:03:59;6.70;69.20
1155;DHT22;566;48.414;9.118;2022-11-10T07:06:25;6.90;69.30
1155;DHT22;566;48.414;9.118;2022-11-10T07:08:51;6.80;69.30
1155;DHT22;566;48.414;9.118;2022-11-10T07:11:16;6.80;69.30
1155;DHT22;566;48.414;9.118;2022-11-10T07:13:42;6.80;69.20
1155;DHT22;566;48.414;9.118;2022-11-10T07:16:08;6.90;69.30
1155;DHT22;566;48.414;9.118;2022-11-10T07:18:34;6.90;69.30
1155;DHT22;566;48.414;9.118;2022-11-10T07:21:04;7.00;69.10
1155;DHT22;566;48.414;9.118;2022-11-10T07:23:39;7.00;69.30
1155;DHT22;566;48.414;9.118;2022-11-10T07:26:07;7.10;69.10
1155;DHT22;566;48.414;9.118;2022-11-10T07:28:33;7.30;69.20
1155;DHT22;566;48.414;9.118;2022-11-10T07:31:05;7.50;69.30
1155;DHT22;566;48.414;9.118;2022-11-10T07:33:31;7.70;69.30
1155;DHT22;566;48.414;9.118;2022-11-10T07:35:58;7.70;69.10
1155;DHT22;566;48.414;9.118;2022-11-10T07:38:25;7.70;68.90
1155;DHT22;566;48.414;9.118;2022-11-10T07:40:53;7.70;68.90
1155;DHT22;566;48.414;9.118;2022-11-10T07:43:20;7.70;68.90
1155;DHT22;566;48.414;9.118;2022-11-10T07:45:49;7.90;68.90
1155;DHT22;566;48.414;9.118;2022-11-10T07:48:15;7.70;69.10
1155;DHT22;566;48.414;9.118;2022-11-10T07:50:41;7.60;68.80
1155;DHT22;566;48.414;9.118;2022-11-10T07:53:12;7.60;68.80
1155;DHT22;566;48.414;9.118;2022-11-10T07:55:40;7.60;68.80
1155;DHT22;566;48.414;9.118;2022-11-10T07:58:07;7.50;68.90
1155;DHT22;566;48.414;9.118;2022-11-10T08:00:36;7.50;68.80
1155;DHT22;566;48.414;9.118;2022-11-10T08:03:20;7.60;68.80
1155;DHT22;566;48.414;9.118;2022-11-10T08:05:55;7.80;68.80
1155;DHT22;566;48.414;9.118;2022-11-10T08:08:21;7.90;68.80
1155;DHT22;566;48.414;9.118;2022-11-10T08:10:49;8.10;68.80
1155;DHT22;566;48.414;9.118;2022-11-10T08:13:15;8.40;68.80
1155;DHT22;566;48.414;9.118;2022-11-10T08:15:41;8.60;69.10
1155;DHT22;566;48.414;9.118;2022-11-10T08:18:18;9.00;69.40
1155;DHT22;566;48.414;9.118;2022-11-10T08:20:44;9.00;69.20
1155;DHT22;566;48.414;9.118;2022-11-10T08:23:10;9.00;68.90
1155;DHT22;566;48.414;9.118;2022-11-10T08:25:37;8.90;68.60
1155;DHT22;566;48.414;9.118;2022-11-10T08:28:05;9.00;68.20
1155;DHT22;566;48.414;9.118;2022-11-10T08:30:33;9.80;70.40
1155;DHT22;566;48.414;9.118;2022-11-10T08:33:00;10.80;71.50
1155;DHT22;566;48.414;9.118;2022-11-10T08:35:28;11.90;71.40
1155;DHT22;566;48.414;9.118;2022-11-10T08:37:55;13.10;69.60
1155;DHT22;566;48.414;9.118;2022-11-10T08:40:22;14.50;65.20
1155;DHT22;566;48.414;9.118;2022-11-10T08:42:59;15.60;88.10
1155;DHT22;566;48.414;9.118;2022-11-10T08:45:25;15.50;98.00
1155;DHT22;566;48.414;9.118;2022-11-10T08:48:02;16.00;98.00
1155;DHT22;566;48.414;9.118;2022-11-10T08:50:28;15.90;95.40
1155;DHT22;566;48.414;9.118;2022-11-10T08:52:54;16.40;97.50
1155;DHT22;566;48.414;9.118;2022-11-10T08:55:20;16.30;94.60
1155;DHT22;566;48.414;9.118;2022-11-10T08:57:49;16.10;95.10
1155;DHT22;566;48.414;9.118;2022-11-10T09:00:17;16.10;89.60
1155;DHT22;566;48.414;9.118;2022-11-10T09:02:42;14.80;92.40
1155;DHT22;566;48.414;9.118;2022-11-10T09:05:09;13.70;93.90
1155;DHT22;566;48.414;9.118;2022-11-10T09:07:45;12.70;95.40
1155;DHT22;566;48.414;9.118;2022-11-10T09:10:14;12.60;97.70
1155;DHT22;566;48.414;9.118;2022-11-10T09:12:42;12.80;96.70
1155;DHT22;566;48.414;9.118;2022-11-10T09:15:09;12.40;97.60
1155;DHT22;566;48.414;9.118;2022-11-10T09:17:36;13.30;98.00
1155;DHT22;566;48.414;9.118;2022-11-10T09:20:03;13.80;96.60
1155;DHT22;566;48.414;9.118;2022-11-10T09:22:28;13.70;95.70
1155;DHT22;566;48.414;9.118;2022-11-10T09:24:54;14.20;96.60
1155;DHT22;566;48.414;9.118;2022-11-10T09:27:20;15.00;93.30
1155;DHT22;566;48.414;9.118;2022-11-10T09:29:45;16.10;89.30
1155;DHT22;566;48.414;9.118;2022-11-10T09:32:11;17.10;87.60
1155;DHT22;566;48.414;9.118;2022-11-10T09:34:37;17.70;84.30
1155;DHT22;566;48.414;9.118;2022-11-10T09:37:02;17.50;82.00
1155;DHT22;566;48.414;9.118;2022-11-10T09:39:28;16.80;84.30
1155;DHT22;566;48.414;9.118;2022-11-10T09:41:53;16.70;86.40
1155;DHT22;566;48.414;9.118;2022-11-10T09:44:37;16.80;83.70
1155;DHT22;566;48.414;9.118;2022-11-10T09:47:13;16.30;85.00
1155;DHT22;566;48.414;9.118;2022-11-10T09:49:57;15.50;87.20
1155;DHT22;566;48.414;9.118;2022-11-10T09:52:26;14.90;87.10
1155;DHT22;566;48.414;9.118;2022-11-10T09:55:02;14.80;88.60
1155;DHT22;566;48.414;9.118;2022-11-10T09:57:30;15.50;88.50
1155;DHT22;566;48.414;9.118;2022-11-10T09:59:56;15.70;86.60
1155;DHT22;566;48.414;9.118;2022-11-10T10:02:50;15.50;85.70
1155;DHT22;566;48.414;9.118;2022-11-10T10:05:55;15.00;86.70
1155;DHT22;566;48.414;9.118;2022-11-10T10:14:21;13.50;91.90
1155;DHT22;566;48.414;9.118;2022-11-10T10:19:52;15.00;89.50
1155;DHT22;566;48.414;9.118;2022-11-10T10:25:13;15.50;85.40
1155;DHT22;566;48.414;9.118;2022-11-10T10:27:43;15.90;83.60
1155;DHT22;566;48.414;9.118;2022-11-10T10:30:15;16.10;82.70
1155;DHT22;566;48.414;9.118;2022-11-10T10:32:42;16.30;82.50
1155;DHT22;566;48.414;9.118;2022-11-10T10:35:16;16.70;80.40
1155;DHT22;566;48.414;9.118;2022-11-10T10:37:53;16.90;81.70
1155;DHT22;566;48.414;9.118;2022-11-10T10:40:22;17.00;80.20
1155;DHT22;566;48.414;9.118;2022-11-10T10:42:49;16.70;80.60
1155;DHT22;566;48.414;9.118;2022-11-10T10:45:22;16.30;82.30
1155;DHT22;566;48.414;9.118;2022-11-10T10:47:50;16.20;82.90
1155;DHT22;566;48.414;9.118;2022-11-10T10:50:35;16.30;83.10
1155;DHT22;566;48.414;9.118;2022-11-10T10:55:43;16.80;80.10
1155;DHT22;566;48.414;9.118;2022-11-10T10:59:16;16.80;79.50
1155;DHT22;566;48.414;9.118;2022-11-10T11:03:42;16.70;79.40
1155;DHT22;566;48.414;9.118;2022-11-10T11:09:06;17.50;78.20
1155;DHT22;566;48.414;9.118;2022-11-10T11:11:38;17.30;77.50
1155;DHT22;566;48.414;9.118;2022-11-10T11:14:25;16.60;77.70
1155;DHT22;566;48.414;9.118;2022-11-10T11:16:58;16.50;80.10
1155;DHT22;566;48.414;9.118;2022-11-10T11:19:26;16.50;79.00
1155;DHT22;566;48.414;9.118;2022-11-10T11:24:42;16.00;79.60
1155;DHT22;566;48.414;9.118;2022-11-10T11:27:38;16.20;80.20
1155;DHT22;566;48.414;9.118;2022-11-10T11:30:35;16.10;79.10
1155;DHT22;566;48.414;9.118;2022-11-10T11:33:12;16.00;79.80
1155;DHT22;566;48.414;9.118;2022-11-10T11:49:16;15.30;82.90
1155;DHT22;566;48.414;9.118;2022-11-10T11:51:57;15.50;82.80
1155;DHT22;566;48.414;9.118;2022-11-10T11:54:27;15.60;82.70
1155;DHT22;566;48.414;9.118;2022-11-10T12:00:09;15.60;81.30
1155;DHT22;566;48.414;9.118;2022-11-10T12:05:33;15.30;83.10
1155;DHT22;566;48.414;9.118;2022-11-10T12:11:20;15.90;81.30
1155;DHT22;566;48.414;9.118;2022-11-10T12:16:29;16.70;80.20
1155;DHT22;566;48.414;9.118;2022-11-10T12:21:30;16.70;78.90
1155;DHT22;566;48.414;9.118;2022-11-10T12:24:04;17.00;78.30
1155;DHT22;566;48.414;9.118;2022-11-10T12:26:46;16.90;76.90
1155;DHT22;566;48.414;9.118;2022-11-10T12:32:10;16.40;77.60
1155;DHT22;566;48.414;9.118;2022-11-10T12:34:43;16.30;79.30
1155;DHT22;566;48.414;9.118;2022-11-10T12:37:28;16.10;79.00
1155;DHT22;566;48.414;9.118;2022-11-10T12:40:14;15.90;77.90
1155;DHT22;566;48.414;9.118;2022-11-10T12:42:42;15.80;79.30
1155;DHT22;566;48.414;9.118;2022-11-10T12:47:44;15.60;80.80
1155;DHT22;566;48.414;9.118;2022-11-10T12:50:27;15.60;80.00
1155;DHT22;566;48.414;9.118;2022-11-10T12:53:02;15.70;79.60
1155;DHT22;566;48.414;9.118;2022-11-10T12:55:41;15.90;80.40
1155;DHT22;566;48.414;9.118;2022-11-10T12:58:12;15.70;79.00
1155;DHT22;566;48.414;9.118;2022-11-10T13:00:52;15.40;78.70
1155;DHT22;566;48.414;9.118;2022-11-10T13:03:30;15.20;80.20
1155;DHT22;566;48.414;9.118;2022-11-10T13:06:02;15.20;81.10
1155;DHT22;566;48.414;9.118;2022-11-10T13:08:34;15.40;80.40
1155;DHT22;566;48.414;9.118;2022-11-10T13:11:06;15.40;81.20
1155;DHT22;566;48.414;9.118;2022-11-10T13:13:54;15.50;80.00
1155;DHT22;566;48.414;9.118;2022-11-10T13:24:37;15.50;79.70
1155;DHT22;566;48.414;9.118;2022-11-10T13:30:43;14.90;81.20
1155;DHT22;566;48.414;9.118;2022-11-10T13:35:56;14.60;82.80
1155;DHT22;566;48.414;9.118;2022-11-10T13:44:26;14.30;83.30
1155;DHT22;566;48.414;9.118;2022-11-10T13:50:16;14.30;83.10
1155;DHT22;566;48.414;9.118;2022-11-10T13:58:11;13.90;84.00
1155;DHT22;566;48.414;9.118;2022-11-10T14:00:48;13.90;85.30
1155;DHT22;566;48.414;9.118;2022-11-10T14:06:19;14.20;84.20
1155;DHT22;566;48.414;9.118;2022-11-10T14:09:16;14.30;83.80
1155;DHT22;566;48.414;9.118;2022-11-10T14:11:46;14.50;83.00
1155;DHT22;566;48.414;9.118;2022-11-10T14:16:54;14.70;82.30
1155;DHT22;566;48.414;9.118;2022-11-10T14:22:34;14.70;81.40
1155;DHT22;566;48.414;9.118;2022-11-10T14:25:03;14.70;82.00
1155;DHT22;566;48.414;9.118;2022-11-10T14:27:33;14.70;82.00
1155;DHT22;566;48.414;9.118;2022-11-10T14:30:16;14.60;81.80
1155;DHT22;566;48.414;9.118;2022-11-10T14:32:44;14.50;81.80
1155;DHT22;566;48.414;9.118;2022-11-10T14:35:23;14.60;82.30
1155;DHT22;566;48.414;9.118;2022-11-10T14:37:51;14.60;81.30
1155;DHT22;566;48.414;9.118;2022-11-10T14:40:21;14.80;82.00
1155;DHT22;566;48.414;9.118;2022-11-10T14:42:47;14.70;81.60
1155;DHT22;566;48.414;9.118;2022-11-10T14:45:19;14.80;81.20
1155;DHT22;566;48.414;9.118;2022-11-10T14:47:58;15.20;81.40
1155;DHT22;566;48.414;9.118;2022-11-10T14:50:30;15.50;80.10
1155;DHT22;566;48.414;9.118;2022-11-10T14:53:02;16.00;81.70
1155;DHT22;566;48.414;9.118;2022-11-10T14:55:34;16.30;80.30
1155;DHT22;566;48.414;9.118;2022-11-10T15:00:36;16.20;77.40
1155;DHT22;566;48.414;9.118;2022-11-10T15:03:06;15.80;79.80
1155;DHT22;566;48.414;9.118;2022-11-10T15:05:34;16.10;81.40
1155;DHT22;566;48.414;9.118;2022-11-10T15:08:00;16.20;81.50
1155;DHT22;566;48.414;9.118;2022-11-10T15:10:50;16.60;80.70
1155;DHT22;566;48.414;9.118;2022-11-10T15:13:38;16.00;81.30
1155;DHT22;566;48.414;9.118;2022-11-10T15:16:30;15.90;80.50
1155;DHT22;566;48.414;9.118;2022-11-10T15:24:45;15.60;83.50
1155;DHT22;566;48.414;9.118;2022-11-10T15:27:23;15.50;85.10
1155;DHT22;566;48.414;9.118;2022-11-10T15:29:49;15.70;84.50
1155;DHT22;566;48.414;9.118;2022-11-10T15:32:18;15.50;84.20
1155;DHT22;566;48.414;9.118;2022-11-10T15:34:45;15.10;84.40
1155;DHT22;566;48.414;9.118;2022-11-10T15:37:23;14.30;86.30
1155;DHT22;566;48.414;9.118;2022-11-10T15:42:41;13.20;89.20
1155;DHT22;566;48.414;9.118;2022-11-10T15:45:07;12.60;90.40
1155;DHT22;566;48.414;9.118;2022-11-10T15:47:33;12.20;91.60
1155;DHT22;566;48.414;9.118;2022-11-10T15:49:59;11.70;92.90
1155;DHT22;566;48.414;9.118;2022-11-10T15:52:27;11.20;94.40
1155;DHT22;566;48.414;9.118;2022-11-10T15:54:53;10.70;95.60
1155;DHT22;566;48.414;9.118;2022-11-10T15:57:19;10.10;96.30
1155;DHT22;566;48.414;9.118;2022-11-10T15:59:44;9.70;96.40
1155;DHT22;566;48.414;9.118;2022-11-10T16:02:23;9.30;96.20
1155;DHT22;566;48.414;9.118;2022-11-10T16:04:51;9.10;95.60
1155;DHT22;566;48.414;9.118;2022-11-10T16:07:18;8.90;94.60
1155;DHT22;566;48.414;9.118;2022-11-10T16:09:44;8.70;94.20
1155;DHT22;566;48.414;9.118;2022-11-10T16:12:18;8.60;93.50
1155;DHT22;566;48.414;9.118;2022-11-10T16:14:47;8.50;93.60
1155;DHT22;566;48.414;9.118;2022-11-10T16:17:14;8.40;93.50
1155;DHT22;566;48.414;9.118;2022-11-10T16:19:44;8.30;93.00
1155;DHT22;566;48.414;9.118;2022-11-10T16:22:14;8.20;92.40
1155;DHT22;566;48.414;9.118;2022-11-10T16:24:40;8.00;91.40
1155;DHT22;566;48.414;9.118;2022-11-10T16:27:10;7.90;91.10
1155;DHT22;566;48.414;9.118;2022-11-10T16:29:36;7.90;90.90
1155;DHT22;566;48.414;9.118;2022-11-10T16:32:02;7.70;90.70
1155;DHT22;566;48.414;9.118;2022-11-10T16:34:28;7.60;89.80
1155;DHT22;566;48.414;9.118;2022-11-10T16:36:54;7.60;89.10
1155;DHT22;566;48.414;9.118;2022-11-10T16:39:22;7.50;88.80
1155;DHT22;566;48.414;9.118;2022-11-10T16:41:49;7.50;88.50
1155;DHT22;566;48.414;9.118;2022-11-10T16:44:15;7.50;88.80
1155;DHT22;566;48.414;9.118;2022-11-10T16:46:48;7.40;88.90
1155;DHT22;566;48.414;9.118;2022-11-10T16:49:33;7.30;89.10
1155;DHT22;566;48.414;9.118;2022-11-10T16:52:07;7.20;88.40
1155;DHT22;566;48.414;9.118;2022-11-10T16:54:35;7.10;87.10
1155;DHT22;566;48.414;9.118;2022-11-10T16:57:01;7.10;86.70
1155;DHT22;566;48.414;9.118;2022-11-10T16:59:30;7.10;86.20
1155;DHT22;566;48.414;9.118;2022-11-10T17:01:56;7.10;86.50
1155;DHT22;566;48.414;9.118;2022-11-10T17:04:22;7.10;86.30
1155;DHT22;566;48.414;9.118;2022-11-10T17:06:47;7.00;86.40
1155;DHT22;566;48.414;9.118;2022-11-10T17:09:19;7.00;85.90
1155;DHT22;566;48.414;9.118;2022-11-10T17:11:46;6.90;85.60
1155;DHT22;566;48.414;9.118;2022-11-10T17:14:12;7.00;85.40
1155;DHT22;566;48.414;9.118;2022-11-10T17:16:41;7.00;85.50
1155;DHT22;566;48.414;9.118;2022-11-10T17:19:16;7.00;86.00
1155;DHT22;566;48.414;9.118;2022-11-10T17:21:43;6.90;87.30
1155;DHT22;566;48.414;9.118;2022-11-10T17:24:12;6.70;87.30
1155;DHT22;566;48.414;9.118;2022-11-10T17:26:38;6.60;85.20
1155;DHT22;566;48.414;9.118;2022-11-10T17:29:04;6.70;83.70
1155;DHT22;566;48.414;9.118;2022-11-10T17:31:32;6.70;84.20
1155;DHT22;566;48.414;9.118;2022-11-10T17:33:58;6.80;84.20
1155;DHT22;566;48.414;9.118;2022-11-10T17:36:23;6.80;84.10
1155;DHT22;566;48.414;9.118;2022-11-10T17:38:50;6.80;84.40
1155;DHT22;566;48.414;9.118;2022-11-10T17:41:17;6.80;84.70
1155;DHT22;566;48.414;9.118;2022-11-10T17:43:44;6.70;86.70
1155;DHT22;566;48.414;9.118;2022-11-10T17:46:10;6.60;84.40
1155;DHT22;566;48.414;9.118;2022-11-10T17:48:40;6.60;83.30
1155;DHT22;566;48.414;9.118;2022-11-10T17:51:10;6.70;83.60
1155;DHT22;566;48.414;9.118;2022-11-10T17:53:38;6.70;84.80
1155;DHT22;566;48.414;9.118;2022-11-10T17:56:04;6.70;85.20
1155;DHT22;566;48.414;9.118;2022-11-10T17:58:29;6.70;84.80
1155;DHT22;566;48.414;9.118;2022-11-10T18:00:55;6.60;84.80
1155;DHT22;566;48.414;9.118;2022-11-10T18:03:21;6.50;84.50
1155;DHT22;566;48.414;9.118;2022-11-10T18:05:47;6.50;84.60
1155;DHT22;566;48.414;9.118;2022-11-10T18:08:14;6.50;83.80
1155;DHT22;566;48.414;9.118;2022-11-10T18:10:49;6.50;83.50
1155;DHT22;566;48.414;9.118;2022-11-10T18:13:16;6.50;83.20
1155;DHT22;566;48.414;9.118;2022-11-10T18:15:44;6.50;83.00
1155;DHT22;566;48.414;9.118;2022-11-10T18:18:14;6.50;82.40
1155;DHT22;566;48.414;9.118;2022-11-10T18:20:43;6.50;80.90
1155;DHT22;566;48.414;9.118;2022-11-10T18:23:09;6.50;81.60
1155;DHT22;566;48.414;9.118;2022-11-10T18:25:40;6.50;81.70
1155;DHT22;566;48.414;9.118;2022-11-10T18:28:07;6.40;82.50